createdAt,value
2018-10-02T00:01:13.445Z,8.99
2018-10-02T00:03:45.117Z,8.88
2018-10-02T00:06:16.845Z,8.86
2018-10-02T00:08:48.888Z,9.01
2018-10-02T00:11:25.147Z,8.90
2018-10-02T00:14:01.646Z,8.70
2018-10-02T00:16:33.067Z,8.82
2018-10-02T00:19:04.944Z,9.02
2018-10-02T00:21:36.476Z,9.03
2018-10-02T00:24:08.178Z,8.90
2018-10-02T00:26:40.352Z,8.89
2018-10-02T00:29:12.303Z,9.02
2018-10-02T00:31:43.924Z,9.05
2018-10-02T00:34:15.360Z,8.95
2018-10-02T00:36:47.426Z,9.17
2018-10-02T00:39:19.238Z,9.02
2018-10-02T00:41:50.939Z,9.11
2018-10-02T00:44:24.210Z,9.11
2018-10-02T00:46:56.890Z,8.91
2018-10-02T00:49:28.900Z,8.85
2018-10-02T00:52:00.770Z,8.78
2018-10-02T00:54:32.657Z,8.74
2018-10-02T00:57:04.223Z,8.86
2018-10-02T00:59:36.052Z,8.83
2018-10-02T01:02:08.260Z,8.75
2018-10-02T01:04:40.403Z,8.80
2018-10-02T01:07:11.421Z,8.75
2018-10-02T01:09:43.493Z,8.78
2018-10-02T01:12:16.215Z,8.77
2018-10-02T01:14:48.238Z,8.90
2018-10-02T01:17:28.986Z,8.90
2018-10-02T01:20:01.683Z,8.55
2018-10-02T01:22:33.442Z,8.65
2018-10-02T01:25:05.337Z,8.49
2018-10-02T01:27:36.988Z,8.36
2018-10-02T01:30:09.017Z,8.51
2018-10-02T01:32:41.062Z,8.26
2018-10-02T01:35:12.647Z,8.27
2018-10-02T01:37:44.334Z,8.35
2018-10-02T01:43:20.976Z,8.34
2018-10-02T01:45:59.405Z,8.35
2018-10-02T01:48:30.772Z,8.16
2018-10-02T01:51:02.336Z,8.02
2018-10-02T01:53:34.675Z,8.13
2018-10-02T01:56:06.158Z,7.99
2018-10-02T01:58:37.604Z,8.25
2018-10-02T02:01:09.258Z,8.40
2018-10-02T02:03:41.763Z,8.34
2018-10-02T02:06:13.550Z,8.32
2018-10-02T02:08:44.921Z,8.26
2018-10-02T02:11:16.877Z,8.32
2018-10-02T02:13:48.744Z,8.22
2018-10-02T02:16:20.069Z,8.47
2018-10-02T02:18:51.879Z,8.37
2018-10-02T02:21:24.269Z,8.13
2018-10-02T02:23:56.397Z,8.06
2018-10-02T02:26:28.370Z,8.16
2018-10-02T02:29:00.204Z,7.90
2018-10-02T02:31:31.677Z,7.87
2018-10-02T02:34:03.953Z,7.90
2018-10-02T02:36:35.529Z,7.98
2018-10-02T02:39:07.810Z,7.89
2018-10-02T02:41:39.514Z,7.94
2018-10-02T02:44:10.758Z,7.95
2018-10-02T02:46:42.095Z,8.06
2018-10-02T02:49:18.023Z,8.03
2018-10-02T02:51:49.694Z,8.14
2018-10-02T02:54:21.021Z,7.89
2018-10-02T02:56:51.760Z,7.87
2018-10-02T02:59:23.790Z,7.88
2018-10-02T03:01:55.427Z,7.89
2018-10-02T03:04:26.274Z,7.95
2018-10-02T03:06:58.442Z,8.01
2018-10-02T03:09:29.601Z,8.08
2018-10-02T03:12:00.541Z,8.01
2018-10-02T03:14:32.694Z,8.00
2018-10-02T03:17:04.545Z,8.08
2018-10-02T03:19:35.891Z,8.19
2018-10-02T03:22:06.663Z,8.27
2018-10-02T03:24:38.293Z,8.21
2018-10-02T03:27:09.832Z,8.26
2018-10-02T03:29:41.582Z,8.23
2018-10-02T03:32:12.868Z,8.30
2018-10-02T03:34:44.692Z,8.43
2018-10-02T03:37:16.479Z,8.22
2018-10-02T03:39:48.709Z,8.56
2018-10-02T03:45:09.041Z,8.39
2018-10-02T03:47:46.994Z,8.31
2018-10-02T03:50:21.645Z,8.46
2018-10-02T03:52:54.897Z,8.47
2018-10-02T03:55:28.483Z,8.28
2018-10-02T03:58:02.955Z,8.38
2018-10-02T04:00:37.216Z,8.42
2018-10-02T04:03:12.663Z,8.46
2018-10-02T04:05:49.040Z,8.47
2018-10-02T04:08:30.328Z,8.44
2018-10-02T04:11:04.360Z,8.47
2018-10-02T04:13:39.563Z,8.47
2018-10-02T04:16:10.792Z,8.38
2018-10-02T04:18:42.758Z,8.41
2018-10-02T04:21:15.952Z,8.42
2018-10-02T04:23:47.755Z,8.45
2018-10-02T04:26:19.293Z,8.38
2018-10-02T04:28:51.656Z,8.41
2018-10-02T04:31:23.589Z,8.48
2018-10-02T04:33:55.190Z,8.51
2018-10-02T04:36:26.734Z,8.47
2018-10-02T04:38:58.149Z,8.53
2018-10-02T04:41:29.297Z,8.45
2018-10-02T04:44:00.491Z,8.48
2018-10-02T04:46:32.352Z,8.51
2018-10-02T04:49:05.097Z,8.42
2018-10-02T04:51:36.567Z,8.43
2018-10-02T04:54:07.269Z,8.59
2018-10-02T04:56:39.366Z,8.48
2018-10-02T04:59:10.332Z,8.43
2018-10-02T05:01:41.903Z,8.51
2018-10-02T05:04:15.965Z,8.49
2018-10-02T05:06:50.496Z,8.69
2018-10-02T05:09:23.354Z,8.56
2018-10-02T05:11:54.337Z,8.44
2018-10-02T05:14:25.536Z,8.46
2018-10-02T05:16:58.357Z,8.52
2018-10-02T05:19:30.186Z,8.49
2018-10-02T05:22:01.634Z,8.58
2018-10-02T05:24:33.113Z,8.56
2018-10-02T05:27:05.782Z,8.66
2018-10-02T05:29:37.918Z,8.64
2018-10-02T05:32:09.590Z,8.70
2018-10-02T05:34:41.219Z,8.59
2018-10-02T05:37:12.274Z,8.69
2018-10-02T05:39:42.995Z,8.73
2018-10-02T05:42:18.357Z,8.68
2018-10-02T05:44:52.961Z,8.58
2018-10-02T05:47:30.275Z,8.62
2018-10-02T05:50:12.726Z,8.71
2018-10-02T05:52:46.817Z,8.69
2018-10-02T05:55:19.235Z,8.78
2018-10-02T05:57:50.695Z,8.65
2018-10-02T06:00:22.266Z,8.65
2018-10-02T06:03:00.687Z,8.70
2018-10-02T06:05:32.765Z,8.66
2018-10-02T06:08:04.113Z,8.67
2018-10-02T06:10:36.907Z,8.59
2018-10-02T06:13:08.601Z,8.64
2018-10-02T06:15:54.690Z,8.67
2018-10-02T06:21:17.407Z,8.75
2018-10-02T06:23:50.450Z,8.74
2018-10-02T06:26:21.423Z,8.60
2018-10-02T06:28:52.959Z,8.79
2018-10-02T06:31:25.916Z,8.64
2018-10-02T06:33:56.696Z,8.76
2018-10-02T06:36:30.303Z,8.74
2018-10-02T06:39:22.341Z,8.64
2018-10-02T06:41:54.003Z,8.68
2018-10-02T06:44:26.300Z,8.80
2018-10-02T06:46:59.510Z,8.79
2018-10-02T06:49:30.815Z,8.81
2018-10-02T06:52:05.849Z,8.85
2018-10-02T06:54:40.664Z,8.91
2018-10-02T06:57:11.874Z,9.02
2018-10-02T06:59:48.278Z,9.02
2018-10-02T07:02:20.177Z,8.94
2018-10-02T07:04:53.100Z,8.94
2018-10-02T07:07:25.146Z,8.99
2018-10-02T07:09:56.283Z,8.98
2018-10-02T07:12:27.099Z,9.01
2018-10-02T07:15:12.891Z,9.08
2018-10-02T07:17:44.134Z,9.13
2018-10-02T07:20:14.791Z,9.12
2018-10-02T07:22:57.414Z,8.99
2018-10-02T07:28:26.917Z,9.11
2018-10-02T07:31:01.299Z,9.21
2018-10-02T07:33:33.282Z,9.05
2018-10-02T07:36:08.636Z,9.14
2018-10-02T07:38:46.713Z,9.10
2018-10-02T07:41:19.730Z,9.04
2018-10-02T07:43:57.912Z,9.15
2018-10-02T07:46:33.264Z,9.22
2018-10-02T07:49:05.371Z,9.27
2018-10-02T07:58:46.504Z,9.38
2018-10-02T08:01:18.108Z,9.33
2018-10-02T08:17:41.466Z,9.50
2018-10-02T08:20:13.612Z,9.52
2018-10-02T08:22:44.095Z,9.16
2018-10-02T08:25:14.710Z,9.06
2018-10-02T08:27:44.902Z,8.91
2018-10-02T08:30:14.989Z,8.94
2018-10-02T08:32:46.118Z,9.04
2018-10-02T08:35:17.267Z,8.93
2018-10-02T08:37:48.341Z,8.99
2018-10-02T08:40:20.101Z,8.96
2018-10-02T08:42:51.251Z,8.90
2018-10-02T08:45:23.150Z,8.90
2018-10-02T08:47:55.433Z,8.81
2018-10-02T08:50:27.828Z,8.93
2018-10-02T08:52:58.237Z,8.77
2018-10-02T08:55:29.534Z,8.76
2018-10-02T08:57:59.526Z,8.64
2018-10-02T09:00:33.260Z,8.78
2018-10-02T09:03:04.598Z,8.83
2018-10-02T09:05:34.721Z,8.71
2018-10-02T09:08:05.971Z,8.79
2018-10-02T09:11:05.486Z,8.85
2018-10-02T09:13:36.590Z,8.77
2018-10-02T09:16:07.973Z,8.87
2018-10-02T09:18:38.187Z,8.87
2018-10-02T09:21:18.296Z,8.95
2018-10-02T09:23:51.127Z,8.80
2018-10-02T09:26:22.782Z,8.74
2018-10-02T09:28:55.875Z,8.97
2018-10-02T09:31:31.113Z,9.01
2018-10-02T09:34:06.858Z,9.02
2018-10-02T09:36:42.879Z,9.01
2018-10-02T09:39:19.778Z,9.06
2018-10-02T09:42:07.143Z,9.09
2018-10-02T09:44:37.549Z,9.07
2018-10-02T09:47:09.204Z,9.13
2018-10-02T09:49:42.263Z,9.14
2018-10-02T09:52:13.397Z,9.38
2018-10-02T09:54:44.285Z,9.44
2018-10-02T09:57:17.209Z,9.33
2018-10-02T09:59:49.095Z,9.22
2018-10-02T10:02:24.658Z,9.21
2018-10-02T10:04:55.562Z,9.28
2018-10-02T10:07:26.078Z,9.27
2018-10-02T10:09:58.072Z,9.43
2018-10-02T10:12:28.275Z,9.35
2018-10-02T10:14:58.903Z,9.35
2018-10-02T10:17:33.152Z,9.37
2018-10-02T10:20:04.672Z,9.44
2018-10-02T10:22:34.892Z,9.44
2018-10-02T10:25:06.750Z,9.33
2018-10-02T10:27:36.865Z,9.34
2018-10-02T10:30:07.674Z,9.47
2018-10-02T10:32:40.278Z,9.40
2018-10-02T10:35:10.724Z,9.39
2018-10-02T10:37:41.869Z,9.43
2018-10-02T10:40:12.383Z,9.42
2018-10-02T10:42:42.349Z,9.47
2018-10-02T10:45:15.594Z,9.45
2018-10-02T10:47:47.343Z,9.50
2018-10-02T10:50:17.807Z,9.46
2018-10-02T10:52:48.964Z,9.51
2018-10-02T10:55:26.787Z,9.58
2018-10-02T10:57:57.575Z,9.59
2018-10-02T11:00:29.638Z,9.74
2018-10-02T11:03:01.496Z,9.64
2018-10-02T11:05:32.796Z,9.66
2018-10-02T11:08:03.175Z,9.60
2018-10-02T11:10:34.259Z,9.64
2018-10-02T11:13:04.519Z,9.65
2018-10-02T11:15:36.681Z,9.64
2018-10-02T11:18:11.719Z,9.69
2018-10-02T11:20:44.806Z,9.75
2018-10-02T11:23:15.026Z,9.72
2018-10-02T11:25:49.560Z,9.86
2018-10-02T11:28:20.603Z,9.74
2018-10-02T11:30:58.915Z,9.77
2018-10-02T11:33:33.992Z,9.79
2018-10-02T11:36:04.306Z,9.78
2018-10-02T11:38:35.286Z,9.80
2018-10-02T11:41:05.397Z,9.88
2018-10-02T11:43:36.925Z,9.85
2018-10-02T11:46:10.470Z,9.89
2018-10-02T11:48:42.848Z,9.92
2018-10-02T11:51:17.755Z,10.01
2018-10-02T11:53:48.098Z,9.95
2018-10-02T11:56:20.357Z,9.96
2018-10-02T11:58:52.934Z,9.98
2018-10-02T12:01:24.226Z,10.01
2018-10-02T12:03:54.421Z,10.01
2018-10-02T12:06:24.726Z,10.02
2018-10-02T12:08:56.696Z,10.08
2018-10-02T12:11:27.724Z,10.15
2018-10-02T12:13:58.099Z,10.14
2018-10-02T12:16:29.428Z,10.26
2018-10-02T12:19:01.005Z,10.27
2018-10-02T12:26:39.902Z,10.61
2018-10-02T12:29:10.469Z,10.81
2018-10-02T12:31:41.329Z,10.85
2018-10-02T12:34:11.326Z,10.95
2018-10-02T12:36:44.099Z,11.05
2018-10-02T12:39:14.184Z,11.17
2018-10-02T12:41:49.863Z,11.32
2018-10-02T12:44:21.097Z,11.46
2018-10-02T12:46:51.487Z,11.48
2018-10-02T12:49:24.491Z,11.58
2018-10-02T12:51:58.180Z,11.66
2018-10-02T12:54:28.755Z,11.71
2018-10-02T12:56:59.385Z,11.72
2018-10-02T12:59:30.704Z,11.74
2018-10-02T13:02:04.950Z,11.88
2018-10-02T13:05:10.127Z,11.99
2018-10-02T13:07:41.269Z,12.17
2018-10-02T13:10:11.642Z,12.27
2018-10-02T13:12:44.257Z,12.49
2018-10-02T13:15:19.718Z,12.65
2018-10-02T13:17:52.777Z,12.79
2018-10-02T13:20:24.300Z,12.94
2018-10-02T13:23:00.934Z,13.09
2018-10-02T13:25:35.162Z,13.27
2018-10-02T13:28:06.920Z,13.46
2018-10-02T13:30:41.976Z,13.48
2018-10-02T13:33:13.875Z,13.57
2018-10-02T13:35:47.079Z,13.56
2018-10-02T13:38:18.116Z,13.52
2018-10-02T13:40:51.123Z,13.54
2018-10-02T13:43:23.141Z,13.46
2018-10-02T13:45:54.293Z,13.41
2018-10-02T13:48:25.631Z,13.36
2018-10-02T13:50:56.518Z,13.22
2018-10-02T13:53:26.710Z,13.17
2018-10-02T13:55:56.725Z,13.20
2018-10-02T13:58:28.110Z,13.21
2018-10-02T14:00:58.356Z,13.13
2018-10-02T14:03:28.637Z,13.20
2018-10-02T14:05:59.555Z,13.19
2018-10-02T14:08:30.113Z,13.20
2018-10-02T14:11:01.173Z,13.16
2018-10-02T14:13:32.824Z,13.18
2018-10-02T14:21:35.059Z,13.25
2018-10-02T14:24:05.451Z,13.20
2018-10-02T14:26:37.247Z,13.24
2018-10-02T14:29:07.833Z,13.27
2018-10-02T14:31:38.560Z,13.47
2018-10-02T14:34:10.715Z,13.47
2018-10-02T14:39:26.738Z,13.37
2018-10-02T14:41:57.084Z,13.26
2018-10-02T14:44:32.929Z,13.23
2018-10-02T14:47:03.783Z,13.19
2018-10-02T14:49:34.853Z,13.22
2018-10-02T14:52:11.290Z,13.19
2018-10-02T14:54:41.563Z,13.19
2018-10-02T14:57:12.732Z,13.12
2018-10-02T14:59:43.663Z,13.10
2018-10-02T15:02:14.293Z,13.05
2018-10-02T15:04:48.688Z,12.99
2018-10-02T15:07:20.582Z,13.03
2018-10-02T15:09:51.819Z,12.95
2018-10-02T15:12:22.852Z,12.95
2018-10-02T15:14:54.410Z,12.91
2018-10-02T15:17:25.407Z,13.00
2018-10-02T15:19:55.632Z,13.04
2018-10-02T15:22:26.043Z,13.09
2018-10-02T15:24:56.746Z,13.04
2018-10-02T15:27:45.501Z,12.98
2018-10-02T15:30:16.131Z,12.95
2018-10-02T15:32:47.590Z,12.91
2018-10-02T15:35:21.986Z,12.85
2018-10-02T15:37:52.487Z,12.85
2018-10-02T15:40:24.812Z,12.82
2018-10-02T15:42:56.134Z,12.72
2018-10-02T15:48:12.479Z,12.70
2018-10-02T15:50:43.635Z,12.73
2018-10-02T15:53:18.227Z,12.74
2018-10-02T15:58:44.696Z,12.78
2018-10-02T16:01:18.361Z,12.71
2018-10-02T16:03:49.344Z,12.58
2018-10-02T16:06:21.484Z,12.50
2018-10-02T16:08:56.974Z,12.39
2018-10-02T16:11:28.534Z,12.30
2018-10-02T16:14:10.175Z,12.34
2018-10-02T16:16:42.443Z,12.27
2018-10-02T16:19:15.277Z,12.29
2018-10-02T16:21:49.757Z,12.24
2018-10-02T16:24:23.969Z,12.24
2018-10-02T16:26:56.812Z,12.18
2018-10-02T16:29:28.400Z,12.22
2018-10-02T16:32:09.238Z,12.10
2018-10-02T16:34:49.282Z,12.04
2018-10-02T16:37:10.940Z,11.98
2018-10-02T16:39:49.649Z,11.88
2018-10-02T16:42:23.059Z,11.86
2018-10-02T16:44:56.152Z,11.87
2018-10-02T16:47:43.314Z,11.86
2018-10-02T16:53:00.014Z,11.96
2018-10-02T16:58:19.707Z,11.91
2018-10-02T17:01:00.780Z,11.87
2018-10-02T17:03:34.702Z,11.84
2018-10-02T17:06:09.165Z,11.88
2018-10-02T17:08:52.148Z,11.86
2018-10-02T17:11:36.845Z,11.89
2018-10-02T17:14:18.441Z,11.89
2018-10-02T17:16:50.777Z,11.89
2018-10-02T17:19:22.803Z,11.75
2018-10-02T17:21:54.198Z,11.76
2018-10-02T17:24:26.561Z,11.75
2018-10-02T17:26:57.152Z,11.73
2018-10-02T17:29:27.930Z,11.73
2018-10-02T17:31:58.933Z,11.80
2018-10-02T17:34:29.603Z,11.67
2018-10-02T17:36:59.582Z,11.66
2018-10-02T17:39:29.656Z,11.65
2018-10-02T17:41:59.993Z,11.58
2018-10-02T17:44:30.174Z,11.45
2018-10-02T17:47:01.411Z,11.41
2018-10-02T17:49:32.116Z,11.34
2018-10-02T17:52:04.730Z,11.37
2018-10-02T17:54:35.534Z,11.36
2018-10-02T17:57:06.282Z,11.34
2018-10-02T17:59:36.804Z,11.37
2018-10-02T18:02:07.935Z,11.36
2018-10-02T18:04:38.471Z,11.36
2018-10-02T18:07:09.412Z,11.35
2018-10-02T18:09:41.948Z,11.43
2018-10-02T18:12:12.978Z,11.41
2018-10-02T18:14:43.826Z,11.39
2018-10-02T18:17:16.142Z,11.34
2018-10-02T18:19:46.080Z,11.24
2018-10-02T18:22:16.260Z,11.27
2018-10-02T18:25:11.085Z,11.24
2018-10-02T18:27:44.979Z,11.16
2018-10-02T18:30:16.948Z,11.13
2018-10-02T18:32:54.259Z,11.21
2018-10-02T18:35:27.688Z,11.14
2018-10-02T18:37:57.828Z,11.18
2018-10-02T18:40:28.088Z,11.16
2018-10-02T18:42:58.224Z,11.04
2018-10-02T18:45:28.407Z,11.05
2018-10-02T18:47:59.500Z,11.06
2018-10-02T18:50:30.283Z,11.02
2018-10-02T18:53:00.958Z,10.98
2018-10-02T18:55:31.585Z,11.08
2018-10-02T18:58:02.334Z,11.13
2018-10-02T19:00:33.009Z,11.20
2018-10-02T19:03:04.828Z,11.19
2018-10-02T19:05:35.848Z,11.25
2018-10-02T19:08:07.711Z,11.21
2018-10-02T19:10:40.188Z,11.18
2018-10-02T19:13:11.194Z,11.15
2018-10-02T19:15:46.464Z,11.11
2018-10-02T19:18:16.718Z,11.10
2018-10-02T19:20:51.721Z,11.09
2018-10-02T19:23:22.525Z,11.05
2018-10-02T19:25:58.054Z,10.98
2018-10-02T19:28:32.086Z,10.96
2018-10-02T19:31:07.658Z,10.98
2018-10-02T19:33:39.678Z,10.97
2018-10-02T19:38:51.374Z,10.95
2018-10-02T19:41:22.439Z,10.94
2018-10-02T19:43:54.179Z,10.94
2018-10-02T19:46:29.396Z,10.96
2018-10-02T19:48:59.770Z,10.99
2018-10-02T19:51:34.918Z,11.06
2018-10-02T19:54:06.935Z,10.88
2018-10-02T19:56:37.135Z,10.91
2018-10-02T19:59:09.111Z,10.83
2018-10-02T20:01:40.635Z,10.81
2018-10-02T20:04:11.860Z,10.80
2018-10-02T20:06:42.218Z,10.76
2018-10-02T20:09:13.232Z,10.78
2018-10-02T20:11:44.282Z,10.72
2018-10-02T20:14:16.297Z,10.74
2018-10-02T20:16:50.234Z,10.81
2018-10-02T20:19:20.455Z,10.83
2018-10-02T20:21:50.920Z,10.85
2018-10-02T20:24:21.109Z,10.89
2018-10-02T20:26:52.004Z,10.95
2018-10-02T20:29:21.961Z,10.88
2018-10-02T20:31:53.923Z,10.83
2018-10-02T20:34:23.973Z,10.84
2018-10-02T20:36:54.081Z,10.86
2018-10-02T20:39:24.843Z,10.78
2018-10-02T20:41:54.745Z,10.76
2018-10-02T20:44:24.933Z,10.73
2018-10-02T20:46:55.045Z,10.67
2018-10-02T20:49:26.054Z,10.59
2018-10-02T20:51:57.061Z,10.61
2018-10-02T20:54:28.148Z,10.63
2018-10-02T20:56:58.708Z,10.60
2018-10-02T20:59:29.844Z,10.57
2018-10-02T21:02:00.173Z,10.68
2018-10-02T21:04:31.965Z,10.75
2018-10-02T21:07:02.438Z,10.80
2018-10-02T21:09:33.838Z,10.78
2018-10-02T21:12:04.019Z,10.83
2018-10-02T21:14:34.656Z,10.76
2018-10-02T21:17:04.888Z,10.77
2018-10-02T21:19:34.916Z,10.75
2018-10-02T21:22:05.144Z,10.60
2018-10-02T21:24:35.489Z,10.54
2018-10-02T21:27:06.189Z,10.57
2018-10-02T21:29:36.559Z,10.55
2018-10-02T21:32:08.194Z,10.51
2018-10-02T21:34:39.167Z,10.57
2018-10-02T21:37:09.667Z,10.57
2018-10-02T21:39:40.668Z,10.60
2018-10-02T21:42:10.911Z,10.62
2018-10-02T21:44:41.843Z,10.68
2018-10-02T21:47:12.045Z,10.67
2018-10-02T21:49:41.983Z,10.78
2018-10-02T21:52:12.780Z,10.75
2018-10-02T21:54:43.126Z,10.74
2018-10-02T21:57:14.018Z,10.81
2018-10-02T21:59:44.571Z,10.81
2018-10-02T22:02:14.692Z,10.77
2018-10-02T22:04:44.933Z,10.82
2018-10-02T22:07:14.902Z,10.87
2018-10-02T22:09:44.809Z,10.96
2018-10-02T22:12:15.552Z,10.97
2018-10-02T22:14:45.865Z,10.97
2018-10-02T22:17:16.214Z,10.94
2018-10-02T22:19:46.654Z,10.95
2018-10-02T22:22:17.181Z,10.90
2018-10-02T22:24:47.674Z,10.88
2018-10-02T22:27:18.015Z,10.87
2018-10-02T22:29:48.189Z,10.88
2018-10-02T22:32:18.096Z,10.83
2018-10-02T22:34:48.357Z,10.88
2018-10-02T22:37:18.592Z,10.88
2018-10-02T22:39:49.800Z,10.94
2018-10-02T22:42:19.754Z,10.96
2018-10-02T22:44:50.019Z,10.93
2018-10-02T22:49:38.432Z,11.02
2018-10-02T22:52:08.619Z,10.99
2018-10-02T22:54:39.042Z,10.98
2018-10-02T22:57:08.992Z,10.91
2018-10-02T22:59:39.050Z,10.87
2018-10-02T23:02:09.312Z,10.82
2018-10-02T23:04:40.207Z,10.72
2018-10-02T23:07:10.710Z,10.64
2018-10-02T23:09:41.009Z,10.70
2018-10-02T23:12:11.259Z,10.66
2018-10-02T23:14:41.822Z,10.55
2018-10-02T23:17:12.304Z,10.62
2018-10-02T23:19:43.655Z,10.54
2018-10-02T23:22:14.392Z,10.54
2018-10-02T23:24:44.435Z,10.41
2018-10-02T23:27:15.527Z,10.41
2018-10-02T23:29:46.271Z,10.45
2018-10-02T23:32:17.313Z,10.45
2018-10-02T23:34:47.528Z,10.45
2018-10-02T23:37:17.987Z,10.50
2018-10-02T23:39:49.109Z,10.44
2018-10-02T23:42:19.848Z,10.47
2018-10-02T23:44:50.377Z,10.42
2018-10-02T23:47:20.783Z,10.44
2018-10-02T23:49:51.139Z,10.48
2018-10-02T23:52:21.376Z,10.49
2018-10-02T23:54:53.321Z,10.47
2018-10-02T23:57:23.781Z,10.55
2018-10-02T23:59:54.425Z,10.48
